createdAt,value
2022-10-04T00:01:51.843Z,98188.84
2022-10-04T00:04:34.827Z,98188.75
2022-10-04T00:07:12.832Z,98185.16
2022-10-04T00:09:50.437Z,98198.53
2022-10-04T00:12:33.806Z,98185.28
2022-10-04T00:15:21.202Z,98185.06
2022-10-04T00:18:32.629Z,98193.50
2022-10-04T00:21:05.002Z,98197.38
2022-10-04T00:23:39.484Z,98199.41
2022-10-04T00:26:34.663Z,98206.06
2022-10-04T00:29:38.339Z,98214.31
2022-10-04T00:32:10.291Z,98206.16
2022-10-04T00:34:54.377Z,98205.56
2022-10-04T00:37:26.493Z,98213.28
2022-10-04T00:40:16.643Z,98215.03
2022-10-04T00:42:59.772Z,98217.16
2022-10-04T00:45:35.920Z,98219.56
2022-10-04T00:48:14.239Z,98222.72
2022-10-04T00:50:45.083Z,98223.13
2022-10-04T00:53:22.267Z,98227.78
2022-10-04T00:56:00.572Z,98229.06
2022-10-04T00:58:37.393Z,98233.22
2022-10-04T01:01:11.183Z,98228.38
2022-10-04T01:03:48.048Z,98232.28
2022-10-04T01:06:18.816Z,98227.66
2022-10-04T01:09:03.163Z,98232.28
2022-10-04T01:11:40.106Z,98229.75
2022-10-04T01:14:23.324Z,98236.06
2022-10-04T01:16:53.673Z,98227.44
2022-10-04T01:19:27.133Z,98244.16
2022-10-04T01:22:07.355Z,98240.91
2022-10-04T01:24:40.043Z,98241.47
2022-10-04T01:27:37.901Z,98242.78
2022-10-04T01:30:17.996Z,98245.66
2022-10-04T01:32:48.161Z,98243.78
2022-10-04T01:35:21.870Z,98241.72
2022-10-04T01:37:52.223Z,98244.16
2022-10-04T01:40:21.999Z,98245.09
2022-10-04T01:42:57.548Z,98245.94
2022-10-04T01:45:44.532Z,98254.97
2022-10-04T01:48:18.782Z,98262.34
2022-10-04T01:51:08.414Z,98261.84
2022-10-04T01:53:47.348Z,98260.50
2022-10-04T01:56:21.226Z,98257.97
2022-10-04T01:58:56.799Z,98261.03
2022-10-04T02:01:41.956Z,98263.34
2022-10-04T02:04:22.904Z,98267.72
2022-10-04T02:06:59.757Z,98271.91
2022-10-04T02:09:41.397Z,98275.19
2022-10-04T02:12:17.840Z,98283.59
2022-10-04T02:14:57.206Z,98271.28
2022-10-04T02:17:41.914Z,98276.66
2022-10-04T02:20:25.356Z,98282.53
2022-10-04T02:23:04.778Z,98278.13
2022-10-04T02:25:34.763Z,98285.59
2022-10-04T02:28:05.842Z,98289.59
2022-10-04T02:30:45.882Z,98292.97
2022-10-04T02:33:16.104Z,98288.94
2022-10-04T02:35:48.837Z,98284.53
2022-10-04T02:38:27.731Z,98291.69
2022-10-04T02:41:10.565Z,98293.59
2022-10-04T02:44:02.604Z,98293.03
2022-10-04T02:46:42.291Z,98297.94
2022-10-04T02:49:30.317Z,98295.72
2022-10-04T02:52:05.538Z,98301.50
2022-10-04T02:54:59.327Z,98308.84
2022-10-04T02:57:29.353Z,98308.66
2022-10-04T03:00:29.805Z,98314.00
2022-10-04T03:03:43.659Z,98310.19
2022-10-04T03:06:19.656Z,98306.88
2022-10-04T03:09:00.797Z,98305.94
2022-10-04T03:11:35.978Z,98310.06
2022-10-04T03:14:11.607Z,98318.34
2022-10-04T03:16:48.171Z,98313.03
2022-10-04T03:19:19.467Z,98314.38
2022-10-04T03:21:53.751Z,98322.94
2022-10-04T03:24:35.869Z,98333.84
2022-10-04T03:27:09.699Z,98330.50
2022-10-04T03:29:44.808Z,98329.09
2022-10-04T03:32:20.101Z,98340.63
2022-10-04T03:35:06.088Z,98340.66
2022-10-04T03:37:39.155Z,98347.16
2022-10-04T03:40:11.759Z,98351.91
2022-10-04T03:42:41.955Z,98351.75
2022-10-04T03:45:18.709Z,98356.53
2022-10-04T03:47:51.522Z,98350.44
2022-10-04T03:50:26.178Z,98361.22
2022-10-04T03:53:01.506Z,98365.78
2022-10-04T03:55:39.787Z,98368.09
2022-10-04T03:58:20.498Z,98367.16
2022-10-04T04:01:11.852Z,98364.53
2022-10-04T04:04:11.797Z,98370.75
2022-10-04T04:07:08.910Z,98378.69
2022-10-04T04:09:47.164Z,98382.16
2022-10-04T04:12:36.718Z,98376.03
2022-10-04T04:15:31.435Z,98385.53
2022-10-04T04:18:24.173Z,98381.19
2022-10-04T04:20:59.950Z,98382.75
2022-10-04T04:23:36.171Z,98379.16
2022-10-04T04:26:21.073Z,98381.28
2022-10-04T04:28:59.331Z,98380.13
2022-10-04T04:31:37.292Z,98388.69
2022-10-04T04:34:17.682Z,98386.03
2022-10-04T04:36:46.832Z,98393.72
2022-10-04T04:39:44.909Z,98390.91
2022-10-04T04:42:25.074Z,98393.53
2022-10-04T04:45:02.000Z,98385.94
2022-10-04T04:47:36.816Z,98381.47
2022-10-04T04:50:19.199Z,98387.44
2022-10-04T04:52:59.602Z,98389.72
2022-10-04T04:55:49.976Z,98388.28
2022-10-04T04:58:30.839Z,98394.38
2022-10-04T05:01:57.139Z,98390.88
2022-10-04T05:04:25.179Z,98388.09
2022-10-04T05:07:16.850Z,98395.09
2022-10-04T05:09:46.229Z,98393.19
2022-10-04T05:12:23.130Z,98395.09
2022-10-04T05:14:58.274Z,98393.34
2022-10-04T05:17:34.656Z,98387.50
2022-10-04T05:20:05.314Z,98392.31
2022-10-04T05:22:36.080Z,98388.13
2022-10-04T05:25:16.719Z,98386.38
2022-10-04T05:27:46.413Z,98386.47
2022-10-04T05:30:24.164Z,98388.56
2022-10-04T05:33:01.395Z,98380.22
2022-10-04T05:35:39.911Z,98384.53
2022-10-04T05:38:28.023Z,98389.22
2022-10-04T05:41:29.140Z,98383.34
2022-10-04T05:44:03.674Z,98376.06
2022-10-04T05:46:39.694Z,98381.84
2022-10-04T05:49:19.466Z,98378.28
2022-10-04T05:51:57.297Z,98372.97
2022-10-04T05:54:29.794Z,98373.09
2022-10-04T05:57:22.190Z,98370.88
2022-10-04T06:00:15.291Z,98366.66
2022-10-04T06:03:11.364Z,98365.88
2022-10-04T06:05:43.301Z,98361.81
2022-10-04T06:08:44.970Z,98362.78
2022-10-04T06:11:25.868Z,98357.19
2022-10-04T06:14:13.304Z,98351.34
2022-10-04T06:17:06.396Z,98347.56
2022-10-04T06:19:54.518Z,98348.00
2022-10-04T06:22:27.675Z,98346.31
2022-10-04T06:25:06.644Z,98336.38
2022-10-04T06:27:46.627Z,98333.84
2022-10-04T06:30:18.584Z,98328.56
2022-10-04T06:33:07.288Z,98325.72
2022-10-04T06:35:47.142Z,98329.63
2022-10-04T06:38:24.593Z,98321.13
2022-10-04T06:41:24.737Z,98312.59
2022-10-04T06:44:04.089Z,98311.59
2022-10-04T06:46:39.981Z,98306.81
2022-10-04T06:49:09.243Z,98314.41
2022-10-04T06:51:59.438Z,98300.41
2022-10-04T06:54:58.390Z,98296.50
2022-10-04T07:00:20.820Z,98297.03
2022-10-04T07:03:00.917Z,98297.72
2022-10-04T07:05:49.031Z,98292.19
2022-10-04T07:08:32.078Z,98287.72
2022-10-04T07:11:27.352Z,98282.69
2022-10-04T07:14:05.365Z,98277.00
2022-10-04T07:16:56.981Z,98270.66
2022-10-04T07:19:40.548Z,98272.31
2022-10-04T07:22:11.192Z,98272.16
2022-10-04T07:24:53.059Z,98267.66
2022-10-04T07:27:37.228Z,98248.72
2022-10-04T07:30:09.702Z,98255.31
2022-10-04T07:32:45.909Z,98254.78
2022-10-04T07:35:34.745Z,98251.38
2022-10-04T07:38:18.813Z,98249.31
2022-10-04T07:41:04.692Z,98242.47
2022-10-04T07:43:57.397Z,98247.03
2022-10-04T07:46:39.635Z,98243.31
2022-10-04T07:49:21.245Z,98233.59
2022-10-04T07:52:27.442Z,98231.22
2022-10-04T07:55:08.943Z,98226.44
2022-10-04T07:57:51.956Z,98227.97
2022-10-04T08:00:26.060Z,98221.97
2022-10-04T08:03:09.393Z,98224.47
2022-10-04T08:05:44.386Z,98218.09
2022-10-04T08:08:31.776Z,98218.84
2022-10-04T08:11:14.585Z,98213.00
2022-10-04T08:14:20.009Z,98214.56
2022-10-04T08:17:09.772Z,98219.44
2022-10-04T08:20:02.080Z,98214.97
2022-10-04T08:23:02.227Z,98209.56
2022-10-04T08:25:59.503Z,98201.00
2022-10-04T08:29:43.720Z,98199.22
2022-10-04T08:32:27.209Z,98201.66
2022-10-04T08:35:03.124Z,98192.66
2022-10-04T08:37:43.769Z,98185.47
2022-10-04T08:40:25.211Z,98191.03
2022-10-04T08:43:06.238Z,98186.41
2022-10-04T08:45:46.900Z,98185.47
2022-10-04T08:48:53.249Z,98177.66
2022-10-04T08:51:43.277Z,98181.16
2022-10-04T08:54:49.595Z,98177.72
2022-10-04T08:57:46.670Z,98177.88
2022-10-04T09:00:37.612Z,98173.69
2022-10-04T09:04:02.799Z,98164.94
2022-10-04T09:06:57.503Z,98167.00
2022-10-04T09:10:14.596Z,98166.06
2022-10-04T09:13:06.243Z,98154.53
2022-10-04T09:15:57.437Z,98152.31
2022-10-04T09:19:07.273Z,98149.28
2022-10-04T09:21:42.329Z,98148.84
2022-10-04T09:24:32.813Z,98138.53
2022-10-04T09:27:54.630Z,98139.03
2022-10-04T09:31:16.056Z,98141.84
2022-10-04T09:33:53.962Z,98140.03
2022-10-04T09:36:28.903Z,98131.31
2022-10-04T09:39:30.282Z,98133.03
2022-10-04T09:42:26.631Z,98123.78
2022-10-04T09:45:23.309Z,98130.25
2022-10-04T09:48:26.062Z,98121.28
2022-10-04T09:51:00.691Z,98116.41
2022-10-04T09:54:14.200Z,98110.47
2022-10-04T09:56:56.071Z,98112.25
2022-10-04T09:59:36.275Z,98113.63
2022-10-04T10:02:39.755Z,98098.63
2022-10-04T10:05:27.973Z,98103.28
2022-10-04T10:08:23.863Z,98101.97
2022-10-04T10:11:31.552Z,98097.84
2022-10-04T10:14:38.558Z,98099.53
2022-10-04T10:17:42.200Z,98092.91
2022-10-04T10:20:41.519Z,98088.44
2022-10-04T10:23:25.584Z,98087.28
2022-10-04T10:26:23.937Z,98084.94
2022-10-04T10:29:28.750Z,98082.50
2022-10-04T10:32:03.632Z,98074.75
2022-10-04T10:34:57.987Z,98078.94
2022-10-04T10:37:52.319Z,98082.06
2022-10-04T10:40:54.126Z,98073.69
2022-10-04T10:43:56.878Z,98079.63
2022-10-04T10:46:44.211Z,98066.72
2022-10-04T10:49:51.424Z,98070.66
2022-10-04T10:53:00.597Z,98074.78
2022-10-04T10:55:45.007Z,98077.75
2022-10-04T10:58:20.007Z,98069.91
2022-10-04T11:01:03.920Z,98069.91
2022-10-04T11:03:57.692Z,98071.88
2022-10-04T11:06:51.041Z,98068.69
2022-10-04T11:09:35.155Z,98064.31
2022-10-04T11:12:31.660Z,98061.53
2022-10-04T11:15:39.299Z,98055.94
2022-10-04T11:18:20.363Z,98066.94
2022-10-04T11:21:00.479Z,98059.44
2022-10-04T11:24:08.024Z,98057.50
2022-10-04T11:27:14.781Z,98061.13
2022-10-04T11:30:04.313Z,98057.47
2022-10-04T11:33:04.580Z,98060.22
2022-10-04T11:36:04.196Z,98068.63
2022-10-04T11:38:59.479Z,98060.22
2022-10-04T11:41:42.830Z,98073.03
2022-10-04T11:44:53.478Z,98070.91
2022-10-04T11:47:31.653Z,98070.50
2022-10-04T11:50:28.439Z,98064.22
2022-10-04T11:53:13.478Z,98067.00
2022-10-04T11:55:43.312Z,98060.97
2022-10-04T11:58:28.354Z,98065.38
2022-10-04T12:01:32.357Z,98066.09
2022-10-04T12:04:42.804Z,98060.25
2022-10-04T12:07:41.211Z,98060.97
2022-10-04T12:10:29.888Z,98066.00
2022-10-04T12:13:15.639Z,98065.75
2022-10-04T12:16:13.920Z,98072.03
2022-10-04T12:19:08.141Z,98071.41
2022-10-04T12:21:41.189Z,98066.13
2022-10-04T12:24:37.430Z,98069.88
2022-10-04T12:27:37.176Z,98062.34
2022-10-04T12:30:16.290Z,98062.81
2022-10-04T12:32:59.688Z,98061.16
2022-10-04T12:35:28.892Z,98056.00
2022-10-04T12:38:22.885Z,98056.81
2022-10-04T12:41:17.763Z,98060.06
2022-10-04T12:44:02.092Z,98067.59
2022-10-04T12:46:43.421Z,98058.69
2022-10-04T12:49:37.441Z,98066.91
2022-10-04T12:52:24.143Z,98065.94
2022-10-04T12:55:12.132Z,98066.38
2022-10-04T12:57:54.961Z,98062.22
2022-10-04T13:00:29.907Z,98069.59
2022-10-04T13:03:43.413Z,98062.16
2022-10-04T13:06:41.168Z,98066.06
2022-10-04T13:09:26.270Z,98061.59
2022-10-04T13:12:20.796Z,98058.13
2022-10-04T13:15:07.447Z,98063.56
2022-10-04T13:17:56.275Z,98069.22
2022-10-04T13:20:30.405Z,98063.63
2022-10-04T13:23:09.933Z,98073.97
2022-10-04T13:26:16.353Z,98075.66
2022-10-04T13:29:20.571Z,98077.44
2022-10-04T13:32:05.883Z,98073.38
2022-10-04T13:34:57.123Z,98078.09
2022-10-04T13:37:33.896Z,98081.00
2022-10-04T13:40:23.469Z,98088.56
2022-10-04T13:43:07.721Z,98085.34
2022-10-04T13:45:55.089Z,98087.88
2022-10-04T13:48:42.764Z,98095.78
2022-10-04T13:51:15.178Z,98100.28
2022-10-04T13:54:25.752Z,98102.56
2022-10-04T13:57:04.321Z,98097.91
2022-10-04T13:59:45.434Z,98104.72
2022-10-04T14:02:47.880Z,98112.69
2022-10-04T14:05:28.859Z,98115.00
2022-10-04T14:08:30.910Z,98114.00
2022-10-04T14:11:09.012Z,98123.78
2022-10-04T14:13:50.028Z,98136.81
2022-10-04T14:16:49.661Z,98130.75
2022-10-04T14:19:41.487Z,98139.91
2022-10-04T14:22:24.058Z,98141.59
2022-10-04T14:24:53.516Z,98147.84
2022-10-04T14:27:39.720Z,98154.66
2022-10-04T14:30:18.403Z,98147.53
2022-10-04T14:33:05.879Z,98148.38
2022-10-04T14:35:54.322Z,98154.41
2022-10-04T14:38:37.608Z,98167.66
2022-10-04T14:41:18.534Z,98163.59
2022-10-04T14:44:05.721Z,98156.72
2022-10-04T14:46:54.047Z,98160.50
2022-10-04T14:49:42.671Z,98166.16
2022-10-04T14:52:48.910Z,98164.59
2022-10-04T14:55:50.129Z,98167.03
2022-10-04T14:58:30.467Z,98172.81
2022-10-04T15:01:17.820Z,98169.88
2022-10-04T15:03:54.036Z,98179.94
2022-10-04T15:06:49.370Z,98169.63
2022-10-04T15:09:48.512Z,98182.22
2022-10-04T15:12:58.383Z,98171.53
2022-10-04T15:15:38.021Z,98179.34
2022-10-04T15:18:29.063Z,98179.84
2022-10-04T15:21:30.121Z,98182.00
2022-10-04T15:24:19.558Z,98183.94
2022-10-04T15:27:27.610Z,98183.44
2022-10-04T15:30:11.764Z,98181.53
2022-10-04T15:32:55.129Z,98181.19
2022-10-04T15:35:55.983Z,98182.88
2022-10-04T15:38:34.880Z,98185.13
2022-10-04T15:41:30.259Z,98184.69
2022-10-04T15:44:18.794Z,98184.44
2022-10-04T15:47:08.553Z,98184.69
2022-10-04T15:50:12.161Z,98186.38
2022-10-04T15:52:55.323Z,98185.88
2022-10-04T15:55:36.679Z,98183.94
2022-10-04T15:58:17.971Z,98183.97
2022-10-04T16:01:26.481Z,98198.13
2022-10-04T16:04:20.502Z,98189.94
2022-10-04T16:07:00.275Z,98192.94
2022-10-04T16:09:41.802Z,98196.44
2022-10-04T16:12:52.279Z,98192.13
2022-10-04T16:15:41.246Z,98195.94
2022-10-04T16:18:16.289Z,98205.28
2022-10-04T16:21:16.822Z,98203.84
2022-10-04T16:23:46.899Z,98205.25
2022-10-04T16:26:35.864Z,98201.94
2022-10-04T16:29:30.592Z,98210.56
2022-10-04T16:32:28.258Z,98206.97
2022-10-04T16:35:44.412Z,98203.34
2022-10-04T16:38:26.993Z,98205.06
2022-10-04T16:41:12.263Z,98200.50
2022-10-04T16:43:55.284Z,98203.84
2022-10-04T16:46:47.281Z,98211.38
2022-10-04T16:49:29.746Z,98210.53
2022-10-04T16:52:20.609Z,98214.38
2022-10-04T16:55:23.227Z,98217.13
2022-10-04T16:58:29.521Z,98222.06
2022-10-04T17:01:30.653Z,98215.94
2022-10-04T17:04:05.749Z,98208.38
2022-10-04T17:07:00.096Z,98218.44
2022-10-04T17:09:59.805Z,98211.00
2022-10-04T17:12:38.265Z,98215.56
2022-10-04T17:15:21.958Z,98213.88
2022-10-04T17:18:13.334Z,98221.53
2022-10-04T17:20:42.670Z,98227.94
2022-10-04T17:23:38.904Z,98224.50
2022-10-04T17:26:38.303Z,98220.53
2022-10-04T17:29:30.325Z,98217.16
2022-10-04T17:32:34.737Z,98213.81
2022-10-04T17:35:39.778Z,98207.44
2022-10-04T17:38:31.300Z,98206.13
2022-10-04T17:41:18.414Z,98208.50
2022-10-04T17:43:57.555Z,98208.50
2022-10-04T17:46:39.062Z,98210.41
2022-10-04T17:49:57.592Z,98205.84
2022-10-04T17:52:52.985Z,98205.69
2022-10-04T17:55:40.423Z,98208.94
2022-10-04T17:58:25.133Z,98217.94
2022-10-04T18:00:57.985Z,98214.78
2022-10-04T18:03:53.315Z,98217.94
2022-10-04T18:06:39.697Z,98212.91
2022-10-04T18:09:28.087Z,98219.00
2022-10-04T18:12:08.191Z,98211.44
2022-10-04T18:14:37.500Z,98213.59
2022-10-04T18:17:10.770Z,98213.25
2022-10-04T18:19:58.294Z,98207.25
2022-10-04T18:22:27.885Z,98206.75
2022-10-04T18:25:24.472Z,98206.25
2022-10-04T18:28:15.137Z,98208.53
2022-10-04T18:31:01.427Z,98207.84
2022-10-04T18:33:44.168Z,98203.97
2022-10-04T18:36:24.641Z,98200.66
2022-10-04T18:39:05.254Z,98198.00
2022-10-04T18:41:52.465Z,98206.81
2022-10-04T18:44:25.656Z,98200.88
2022-10-04T18:47:01.558Z,98203.28
2022-10-04T18:49:34.478Z,98198.38
2022-10-04T18:52:12.769Z,98195.28
2022-10-04T18:55:12.735Z,98199.69
2022-10-04T18:58:12.005Z,98197.22
2022-10-04T19:01:12.415Z,98202.72
2022-10-04T19:03:47.554Z,98193.03
2022-10-04T19:06:34.228Z,98192.19
2022-10-04T19:09:42.038Z,98190.72
2022-10-04T19:12:19.184Z,98185.06
2022-10-04T19:15:14.705Z,98190.16
2022-10-04T19:18:09.542Z,98187.28
2022-10-04T19:20:49.315Z,98189.84
2022-10-04T19:23:43.117Z,98192.25
2022-10-04T19:26:32.067Z,98187.19
2022-10-04T19:29:35.089Z,98189.47
2022-10-04T19:32:15.095Z,98184.66
2022-10-04T19:35:08.490Z,98179.31
2022-10-04T19:38:30.544Z,98181.38
2022-10-04T19:41:14.375Z,98189.72
2022-10-04T19:44:01.537Z,98184.56
2022-10-04T19:46:57.234Z,98184.97
2022-10-04T19:49:54.044Z,98190.91
2022-10-04T19:52:38.039Z,98185.50
2022-10-04T19:55:22.167Z,98184.88
2022-10-04T19:58:08.078Z,98183.00
2022-10-04T20:00:38.558Z,98173.53
2022-10-04T20:03:13.838Z,98183.41
2022-10-04T20:08:58.001Z,98172.88
2022-10-04T20:11:52.999Z,98177.28
2022-10-04T20:14:22.565Z,98177.84
2022-10-04T20:16:52.054Z,98174.91
2022-10-04T20:19:41.593Z,98172.69
2022-10-04T20:22:13.145Z,98177.38
2022-10-04T20:24:42.290Z,98171.47
2022-10-04T20:27:27.430Z,98172.84
2022-10-04T20:29:58.113Z,98172.13
2022-10-04T20:32:37.784Z,98174.66
2022-10-04T20:35:12.056Z,98174.03
2022-10-04T20:37:47.028Z,98170.25
2022-10-04T20:40:25.529Z,98172.03
2022-10-04T20:43:15.993Z,98168.34
2022-10-04T20:45:56.036Z,98168.16
2022-10-04T20:48:27.368Z,98165.75
2022-10-04T20:50:57.470Z,98164.38
2022-10-04T20:53:32.823Z,98161.94
2022-10-04T20:56:20.151Z,98163.34
2022-10-04T20:58:55.418Z,98164.50
2022-10-04T21:01:32.871Z,98152.72
2022-10-04T21:04:33.987Z,98152.28
2022-10-04T21:07:06.937Z,98154.91
2022-10-04T21:09:40.209Z,98145.31
2022-10-04T21:12:37.345Z,98150.16
2022-10-04T21:15:15.823Z,98155.53
2022-10-04T21:17:59.526Z,98146.47
2022-10-04T21:20:48.287Z,98147.00
2022-10-04T21:23:35.323Z,98147.53
2022-10-04T21:26:23.804Z,98153.53
2022-10-04T21:29:00.638Z,98143.53
2022-10-04T21:31:29.850Z,98146.06
2022-10-04T21:33:58.765Z,98143.13
2022-10-04T21:36:27.913Z,98141.44
2022-10-04T21:38:56.866Z,98130.94
2022-10-04T21:41:25.913Z,98138.53
2022-10-04T21:43:54.875Z,98145.22
2022-10-04T21:46:24.225Z,98137.88
2022-10-04T21:48:53.231Z,98139.97
2022-10-04T21:51:22.328Z,98137.03
2022-10-04T21:53:51.271Z,98135.03
2022-10-04T21:56:20.407Z,98135.97
2022-10-04T21:58:49.432Z,98135.69
2022-10-04T22:01:18.753Z,98136.63
2022-10-04T22:03:47.759Z,98140.09
2022-10-04T22:06:18.760Z,98137.03
2022-10-04T22:08:47.894Z,98131.75
2022-10-04T22:11:16.799Z,98146.66
2022-10-04T22:13:47.868Z,98144.03
2022-10-04T22:16:17.138Z,98137.47
2022-10-04T22:18:46.061Z,98135.69
2022-10-04T22:21:15.468Z,98139.97
2022-10-04T22:23:45.490Z,98135.34
2022-10-04T22:26:20.414Z,98143.13
2022-10-04T22:28:55.734Z,98141.16
2022-10-04T22:31:30.317Z,98141.88
2022-10-04T22:33:59.969Z,98139.03
2022-10-04T22:36:37.578Z,98141.34
2022-10-04T22:39:19.006Z,98142.28
2022-10-04T22:41:53.593Z,98139.97
2022-10-04T22:44:37.279Z,98135.03
2022-10-04T22:47:12.735Z,98135.22
2022-10-04T22:49:45.112Z,98134.47
2022-10-04T22:52:22.431Z,98133.44
2022-10-04T22:54:54.312Z,98138.44
2022-10-04T22:57:23.661Z,98139.59
2022-10-04T22:59:53.966Z,98133.19
2022-10-04T23:02:27.616Z,98127.72
2022-10-04T23:05:01.561Z,98133.19
2022-10-04T23:07:33.802Z,98133.81
2022-10-04T23:10:07.413Z,98133.81
2022-10-04T23:12:39.343Z,98130.56
2022-10-04T23:15:09.319Z,98131.72
2022-10-04T23:17:41.173Z,98137.50
2022-10-04T23:20:24.180Z,98132.59
2022-10-04T23:22:55.632Z,98140.13
2022-10-04T23:25:28.972Z,98131.47
2022-10-04T23:28:13.382Z,98125.84
2022-10-04T23:30:43.422Z,98132.88
2022-10-04T23:33:19.166Z,98128.91
2022-10-04T23:35:50.032Z,98131.19
2022-10-04T23:38:23.079Z,98131.91
2022-10-04T23:40:52.722Z,98129.50
2022-10-04T23:43:26.884Z,98128.91
2022-10-04T23:45:59.640Z,98127.50
2022-10-04T23:48:33.355Z,98133.81
2022-10-04T23:51:02.804Z,98129.81
2022-10-04T23:53:34.163Z,98133.81
2022-10-04T23:56:12.875Z,98132.97
2022-10-04T23:58:43.039Z,98134.44
